Time;durP1;ratioP1;P1;durP2;ratioP2;P2;SDS_P1;SDS_P2;PMS_P1;PMS_P2;Temp;Humidity;BMP_temperature;BMP_pressure;BME280_temperature;BME280_humidity;BME280_pressure;Samples;Min_cycle;Max_cycle;Signal;HPM_P1;HPM_P2
2023/09/19 00:02:09;;;;;;;;;;;13.70;78.10;;;;;;5027954;28;19928;-74
2023/09/19 00:04:34;;;;;;;;;;;13.70;78.10;;;;;;5028054;28;20312;-74
2023/09/19 00:07:02;;;;;;;;;;;13.70;78.50;;;;;;5010280;28;19917;-74
2023/09/19 00:09:28;;;;;;;;;;;13.70;78.00;;;;;;5027986;28;19976;-74
2023/09/19 00:11:53;;;;;;;;;;;13.60;77.90;;;;;;5027950;28;19925;-74
2023/09/19 00:14:19;;;;;;;;;;;13.60;78.00;;;;;;5027961;28;19917;-74
2023/09/19 00:16:46;;;;;;;;;;;13.60;78.10;;;;;;5027917;28;20296;-74
2023/09/19 00:19:13;;;;;;;;;;;13.60;78.10;;;;;;5027911;28;19913;-74
2023/09/19 00:21:40;;;;;;;;;;;13.60;78.10;;;;;;5010117;28;19936;-74
2023/09/19 00:24:06;;;;;;;;;;;13.60;78.10;;;;;;5027779;28;20285;-74
2023/09/19 00:26:32;;;;;;;;;;;13.60;78.10;;;;;;5027582;28;19913;-73
2023/09/19 00:29:08;;;;;;;;;;;13.60;78.10;;;;;;5010178;28;19913;-73
2023/09/19 00:31:34;;;;;;;;;;;13.50;78.00;;;;;;5032010;28;20015;-73
2023/09/19 00:34:06;;;;;;;;;;;13.50;78.00;;;;;;5034334;28;20389;-74
2023/09/19 00:36:33;;;;;;;;;;;13.50;78.00;;;;;;5016558;28;20281;-74
2023/09/19 00:38:59;;;;;;;;;;;13.50;78.00;;;;;;5034276;28;19920;-73
2023/09/19 00:41:24;;;;;;;;;;;13.50;78.00;;;;;;5016749;28;20273;-74
2023/09/19 00:43:50;;;;;;;;;;;13.50;78.00;;;;;;5034035;28;20373;-73
2023/09/19 00:46:17;;;;;;;;;;;13.50;78.00;;;;;;5034152;28;19917;-74
2023/09/19 00:48:46;;;;;;;;;;;13.50;78.00;;;;;;5034091;28;19919;-74
2023/09/19 00:51:13;;;;;;;;;;;13.50;78.00;;;;;;5034094;28;20353;-74
2023/09/19 00:53:39;;;;;;;;;;;13.50;77.90;;;;;;5016763;28;20409;-74
2023/09/19 00:56:06;;;;;;;;;;;13.50;77.90;;;;;;5033939;28;19917;-75
2023/09/19 00:58:33;;;;;;;;;;;13.50;77.90;;;;;;5033977;28;19911;-75
2023/09/19 01:00:59;;;;;;;;;;;13.50;77.90;;;;;;5033971;28;19924;-75
2023/09/19 01:03:24;;;;;;;;;;;13.50;77.90;;;;;;5033973;28;19917;-74
2023/09/19 01:05:50;;;;;;;;;;;13.50;77.90;;;;;;5016182;28;19913;-75
2023/09/19 01:08:16;;;;;;;;;;;13.50;77.90;;;;;;5034063;28;19910;-75
2023/09/19 01:10:52;;;;;;;;;;;13.50;77.90;;;;;;5033930;28;20278;-75
2023/09/19 01:13:24;;;;;;;;;;;13.50;78.00;;;;;;5016131;28;20349;-75
2023/09/19 01:15:52;;;;;;;;;;;13.50;78.00;;;;;;5033841;28;20016;-75
2023/09/19 01:18:28;;;;;;;;;;;13.50;78.00;;;;;;5032747;28;20300;-75
2023/09/19 01:20:56;;;;;;;;;;;13.50;77.90;;;;;;5033751;28;20004;-75
2023/09/19 01:23:22;;;;;;;;;;;13.60;78.00;;;;;;5032539;28;19917;-74
2023/09/19 01:26:00;;;;;;;;;;;13.60;78.00;;;;;;5033747;28;19916;-75
2023/09/19 01:28:26;;;;;;;;;;;13.50;78.00;;;;;;5015964;28;19917;-75
2023/09/19 01:30:57;;;;;;;;;;;13.50;78.00;;;;;;5033789;28;19909;-75
2023/09/19 01:33:23;;;;;;;;;;;13.60;78.00;;;;;;5033789;28;19909;-75
2023/09/19 01:35:50;;;;;;;;;;;13.50;77.90;;;;;;5033781;28;20278;-75
2023/09/19 01:38:15;;;;;;;;;;;13.50;77.90;;;;;;5033684;28;19916;-75
2023/09/19 01:40:42;;;;;;;;;;;13.50;78.00;;;;;;5033643;28;19913;-74
2023/09/19 01:43:08;;;;;;;;;;;13.40;78.00;;;;;;5031339;28;19920;-74
2023/09/19 01:45:43;;;;;;;;;;;13.40;78.10;;;;;;5030519;28;19909;-75
2023/09/19 01:48:11;;;;;;;;;;;13.40;78.10;;;;;;5030560;28;19909;-74
2023/09/19 01:50:40;;;;;;;;;;;13.40;78.10;;;;;;5030500;28;20024;-75
2023/09/19 01:53:19;;;;;;;;;;;13.40;78.20;;;;;;5030396;28;20216;-74
2023/09/19 01:55:49;;;;;;;;;;;13.30;78.10;;;;;;5030370;28;20105;-74
2023/09/19 01:58:21;;;;;;;;;;;13.30;78.20;;;;;;5030658;28;19923;-74
2023/09/19 02:00:48;;;;;;;;;;;13.30;78.20;;;;;;5030315;28;19953;-74
2023/09/19 02:03:13;;;;;;;;;;;13.40;78.20;;;;;;5028816;28;20299;-74
2023/09/19 02:05:39;;;;;;;;;;;13.40;78.30;;;;;;5030170;28;19924;-74
2023/09/19 02:08:05;;;;;;;;;;;13.40;78.30;;;;;;5030181;28;19923;-74
2023/09/19 02:10:30;;;;;;;;;;;13.50;78.30;;;;;;5030286;28;20109;-74
2023/09/19 02:12:56;;;;;;;;;;;13.40;78.20;;;;;;5030047;28;19924;-74
2023/09/19 02:15:22;;;;;;;;;;;13.50;78.30;;;;;;5029808;28;19949;-74
2023/09/19 02:17:47;;;;;;;;;;;13.50;78.30;;;;;;5029941;28;19979;-74
2023/09/19 02:20:14;;;;;;;;;;;13.50;78.30;;;;;;5029942;28;19913;-74
2023/09/19 02:22:41;;;;;;;;;;;13.60;78.30;;;;;;5029665;28;19950;-74
2023/09/19 02:25:08;;;;;;;;;;;13.60;78.30;;;;;;5011949;28;19955;-74
2023/09/19 02:27:33;;;;;;;;;;;13.60;78.30;;;;;;5029801;28;20003;-75
2023/09/19 02:30:02;;;;;;;;;;;13.50;78.30;;;;;;5029768;28;20017;-75
2023/09/19 02:32:29;;;;;;;;;;;13.50;78.30;;;;;;5029693;28;20000;-75
2023/09/19 02:34:55;;;;;;;;;;;13.60;78.30;;;;;;5029680;28;20399;-75
2023/09/19 02:37:21;;;;;;;;;;;13.60;78.40;;;;;;5011955;28;19948;-75
2023/09/19 02:39:46;;;;;;;;;;;13.60;78.30;;;;;;5011883;28;19917;-75
2023/09/19 02:42:12;;;;;;;;;;;13.60;78.30;;;;;;5029548;28;19909;-75
2023/09/19 02:44:38;;;;;;;;;;;13.60;78.30;;;;;;5011780;28;19917;-75
2023/09/19 02:47:03;;;;;;;;;;;13.60;78.40;;;;;;5029365;28;19967;-75
2023/09/19 02:49:29;;;;;;;;;;;13.60;78.30;;;;;;5029390;28;20029;-75
2023/09/19 02:51:55;;;;;;;;;;;13.60;78.40;;;;;;5029411;28;19952;-73
2023/09/19 02:54:21;;;;;;;;;;;13.70;78.40;;;;;;5028797;28;19913;-74
2023/09/19 02:56:47;;;;;;;;;;;13.70;78.40;;;;;;5029148;28;19910;-75
2023/09/19 02:59:12;;;;;;;;;;;13.70;78.40;;;;;;5029260;28;20085;-75
2023/09/19 03:01:38;;;;;;;;;;;13.70;78.40;;;;;;5029671;28;19920;-75
2023/09/19 03:04:06;;;;;;;;;;;13.80;78.40;;;;;;5011317;28;19920;-75
2023/09/19 03:06:32;;;;;;;;;;;13.80;78.50;;;;;;5028979;28;19916;-74
2023/09/19 03:08:59;;;;;;;;;;;13.80;78.50;;;;;;5029051;28;19911;-75
2023/09/19 03:11:25;;;;;;;;;;;13.80;78.40;;;;;;4995275;28;20004;-76
2023/09/19 03:13:54;;;;;;;;;;;13.80;78.50;;;;;;5011528;28;20464;-75
2023/09/19 03:16:22;;;;;;;;;;;13.90;78.50;;;;;;5027430;28;19913;-76
2023/09/19 03:18:48;;;;;;;;;;;13.90;78.50;;;;;;5028664;28;19910;-76
2023/09/19 03:21:15;;;;;;;;;;;13.90;78.50;;;;;;5028510;28;19921;-76
2023/09/19 03:23:40;;;;;;;;;;;13.90;78.50;;;;;;5028766;28;19956;-76
2023/09/19 03:26:06;;;;;;;;;;;13.90;78.60;;;;;;5011217;28;20006;-76
2023/09/19 03:28:33;;;;;;;;;;;13.90;78.60;;;;;;5010907;28;19909;-76
2023/09/19 03:31:03;;;;;;;;;;;13.90;78.70;;;;;;5028597;28;20370;-76
2023/09/19 03:33:28;;;;;;;;;;;14.00;78.70;;;;;;5011149;28;20282;-75
2023/09/19 03:35:54;;;;;;;;;;;14.00;78.60;;;;;;5010808;28;19928;-75
2023/09/19 03:38:21;;;;;;;;;;;14.00;78.60;;;;;;5028428;28;19909;-76
2023/09/19 03:40:47;;;;;;;;;;;14.00;78.70;;;;;;5028489;28;19909;-75
2023/09/19 03:43:13;;;;;;;;;;;14.10;78.70;;;;;;5010672;28;19975;-76
2023/09/19 03:45:38;;;;;;;;;;;14.10;78.70;;;;;;5010478;28;19916;-76
2023/09/19 03:48:10;;;;;;;;;;;14.10;78.70;;;;;;5028438;28;19913;-75
2023/09/19 03:50:35;;;;;;;;;;;14.10;78.80;;;;;;5028528;28;19914;-75
2023/09/19 03:53:02;;;;;;;;;;;14.10;78.80;;;;;;5010561;28;19980;-75
2023/09/19 03:55:27;;;;;;;;;;;14.10;78.80;;;;;;5028091;28;20417;-75
2023/09/19 03:57:53;;;;;;;;;;;14.20;79.00;;;;;;5010277;28;19928;-75
2023/09/19 04:00:21;;;;;;;;;;;14.20;79.00;;;;;;5028116;28;19917;-75
2023/09/19 04:02:47;;;;;;;;;;;14.20;78.90;;;;;;5028117;28;19913;-75
2023/09/19 04:05:13;;;;;;;;;;;14.30;79.00;;;;;;5027371;28;20353;-75
2023/09/19 04:07:38;;;;;;;;;;;14.30;79.00;;;;;;5027785;28;20025;-75
2023/09/19 04:10:04;;;;;;;;;;;14.40;79.00;;;;;;5028011;28;19967;-75
2023/09/19 04:12:30;;;;;;;;;;;14.40;79.00;;;;;;5027923;28;19913;-75
2023/09/19 04:14:55;;;;;;;;;;;14.40;79.00;;;;;;5010247;28;19913;-75
2023/09/19 04:17:21;;;;;;;;;;;14.50;79.10;;;;;;5010141;28;19922;-76
2023/09/19 04:19:47;;;;;;;;;;;14.50;79.00;;;;;;5010130;28;19921;-75
2023/09/19 04:22:12;;;;;;;;;;;14.50;79.00;;;;;;5027608;28;20059;-75
2023/09/19 04:24:38;;;;;;;;;;;14.50;79.10;;;;;;5027813;28;19914;-75
2023/09/19 04:27:04;;;;;;;;;;;14.60;79.10;;;;;;5010098;28;20323;-75
2023/09/19 04:29:30;;;;;;;;;;;14.60;79.10;;;;;;5027878;28;20392;-76
2023/09/19 04:31:57;;;;;;;;;;;14.60;79.10;;;;;;5027779;28;19937;-75
2023/09/19 04:34:24;;;;;;;;;;;14.70;79.20;;;;;;5010319;28;19913;-76
2023/09/19 04:36:49;;;;;;;;;;;14.70;79.20;;;;;;5027631;28;20262;-75
2023/09/19 04:39:16;;;;;;;;;;;14.70;79.20;;;;;;5009902;28;19920;-75
2023/09/19 04:41:42;;;;;;;;;;;14.80;79.30;;;;;;5026255;28;20028;-75
2023/09/19 04:44:07;;;;;;;;;;;14.80;79.30;;;;;;5009734;28;20007;-74
2023/09/19 04:46:34;;;;;;;;;;;14.80;79.30;;;;;;5027224;28;20016;-74
2023/09/19 04:48:59;;;;;;;;;;;14.90;79.40;;;;;;5027554;28;20271;-74
2023/09/19 04:51:26;;;;;;;;;;;14.90;79.40;;;;;;5027602;28;19913;-74
2023/09/19 04:53:52;;;;;;;;;;;15.00;79.40;;;;;;5027452;28;20375;-74
2023/09/19 04:56:18;;;;;;;;;;;15.00;79.40;;;;;;5009689;28;19924;-74
2023/09/19 04:58:44;;;;;;;;;;;15.10;79.40;;;;;;5027264;28;19913;-74
2023/09/19 05:01:12;;;;;;;;;;;15.10;79.40;;;;;;5027638;28;19917;-74
2023/09/19 05:03:38;;;;;;;;;;;15.10;79.40;;;;;;5027488;28;20396;-74
2023/09/19 05:06:05;;;;;;;;;;;15.20;79.40;;;;;;5027077;28;19925;-74
2023/09/19 05:08:30;;;;;;;;;;;15.20;79.40;;;;;;5009321;28;19921;-74
2023/09/19 05:10:56;;;;;;;;;;;15.20;79.50;;;;;;5027247;28;19913;-74
2023/09/19 05:13:23;;;;;;;;;;;15.20;79.50;;;;;;5025819;28;19917;-74
2023/09/19 05:15:50;;;;;;;;;;;15.30;79.50;;;;;;5027202;28;20426;-75
2023/09/19 05:18:15;;;;;;;;;;;15.40;79.60;;;;;;5030076;28;19913;-74
2023/09/19 05:20:41;;;;;;;;;;;15.40;79.60;;;;;;5030968;28;20656;-75
2023/09/19 05:23:13;;;;;;;;;;;15.50;79.60;;;;;;5030625;28;19922;-75
2023/09/19 05:25:39;;;;;;;;;;;15.50;79.50;;;;;;5030840;28;19924;-74
2023/09/19 05:28:07;;;;;;;;;;;15.50;79.60;;;;;;5030676;28;19916;-75
2023/09/19 05:30:33;;;;;;;;;;;15.50;79.60;;;;;;5030487;28;19932;-74
2023/09/19 05:32:59;;;;;;;;;;;15.50;79.70;;;;;;5012521;28;19913;-74
2023/09/19 05:35:25;;;;;;;;;;;15.60;79.70;;;;;;5029242;28;19916;-74
2023/09/19 05:37:51;;;;;;;;;;;15.60;79.80;;;;;;5030458;28;19909;-74
2023/09/19 05:40:19;;;;;;;;;;;15.60;79.80;;;;;;5030476;28;20000;-75
2023/09/19 05:42:45;;;;;;;;;;;15.70;79.80;;;;;;5030480;28;19966;-75
2023/09/19 05:45:12;;;;;;;;;;;15.70;79.80;;;;;;5030462;28;19909;-75
2023/09/19 05:47:38;;;;;;;;;;;15.80;79.90;;;;;;5030356;28;20028;-75
2023/09/19 05:50:05;;;;;;;;;;;15.80;79.80;;;;;;5030383;28;20409;-75
2023/09/19 05:52:30;;;;;;;;;;;15.80;79.80;;;;;;5030836;28;20333;-75
2023/09/19 05:54:56;;;;;;;;;;;15.90;79.80;;;;;;5030239;28;19967;-75
2023/09/19 05:57:22;;;;;;;;;;;15.80;79.80;;;;;;5030327;28;19940;-74
2023/09/19 05:59:50;;;;;;;;;;;15.80;79.80;;;;;;5030070;28;19963;-75
2023/09/19 06:02:16;;;;;;;;;;;15.80;79.90;;;;;;5012843;28;19913;-75
2023/09/19 06:04:41;;;;;;;;;;;15.90;80.10;;;;;;5030008;28;20383;-75
2023/09/19 06:07:07;;;;;;;;;;;15.90;80.00;;;;;;5030136;28;20015;-75
2023/09/19 06:09:33;;;;;;;;;;;15.90;80.00;;;;;;5029501;28;19921;-75
2023/09/19 06:12:03;;;;;;;;;;;16.00;80.00;;;;;;5029923;28;20054;-75
2023/09/19 06:14:28;;;;;;;;;;;16.00;80.10;;;;;;5012702;28;19961;-75
2023/09/19 06:16:54;;;;;;;;;;;16.10;80.10;;;;;;5011877;28;19999;-75
2023/09/19 06:19:22;;;;;;;;;;;16.10;80.10;;;;;;5011692;28;20377;-74
2023/09/19 06:21:48;;;;;;;;;;;16.10;80.10;;;;;;5029461;28;19921;-75
2023/09/19 06:24:14;;;;;;;;;;;16.10;80.00;;;;;;5029677;28;20416;-75
2023/09/19 06:26:40;;;;;;;;;;;16.20;80.10;;;;;;5029574;28;19913;-75
2023/09/19 06:29:07;;;;;;;;;;;16.20;80.10;;;;;;5010964;28;19913;-76
2023/09/19 06:31:33;;;;;;;;;;;16.20;80.10;;;;;;5029167;28;19909;-75
2023/09/19 06:33:59;;;;;;;;;;;16.20;80.20;;;;;;5011494;28;20379;-76
2023/09/19 06:36:25;;;;;;;;;;;16.30;80.20;;;;;;5029232;28;19917;-75
2023/09/19 06:38:53;;;;;;;;;;;16.30;80.20;;;;;;5029586;28;19955;-75
2023/09/19 06:41:19;;;;;;;;;;;16.40;80.30;;;;;;5028941;28;19935;-75
2023/09/19 06:43:45;;;;;;;;;;;16.40;80.20;;;;;;5028619;28;20369;-75
2023/09/19 06:46:12;;;;;;;;;;;16.40;80.20;;;;;;5029298;28;19913;-75
2023/09/19 06:48:38;;;;;;;;;;;16.50;80.30;;;;;;5027652;28;20028;-75
2023/09/19 06:51:05;;;;;;;;;;;16.50;80.30;;;;;;5028867;28;20008;-75
2023/09/19 06:53:31;;;;;;;;;;;16.60;80.30;;;;;;5029314;28;19948;-75
2023/09/19 06:55:57;;;;;;;;;;;16.60;80.20;;;;;;5028672;28;19917;-75
2023/09/19 06:58:23;;;;;;;;;;;16.70;80.30;;;;;;5011142;28;20461;-75
2023/09/19 07:00:50;;;;;;;;;;;16.70;80.20;;;;;;5028633;28;19913;-74
2023/09/19 07:03:18;;;;;;;;;;;16.70;80.30;;;;;;5010548;28;20379;-74
2023/09/19 07:05:44;;;;;;;;;;;16.70;80.30;;;;;;5028130;28;19917;-76
2023/09/19 07:08:13;;;;;;;;;;;16.70;80.40;;;;;;5028132;28;19917;-75
2023/09/19 07:10:48;;;;;;;;;;;16.70;80.40;;;;;;5028441;28;19910;-75
2023/09/19 07:13:16;;;;;;;;;;;16.80;80.40;;;;;;4995529;28;20018;-75
2023/09/19 07:15:46;;;;;;;;;;;16.80;80.50;;;;;;5027428;28;19943;-73
2023/09/19 07:18:16;;;;;;;;;;;16.80;80.50;;;;;;5027529;28;19962;-75
2023/09/19 07:20:48;;;;;;;;;;;16.90;80.50;;;;;;5028421;28;19920;-74
2023/09/19 07:23:15;;;;;;;;;;;16.90;80.50;;;;;;5027909;28;19929;-75
2023/09/19 07:25:40;;;;;;;;;;;17.00;80.50;;;;;;5027932;28;19909;-74
2023/09/19 07:28:08;;;;;;;;;;;17.00;80.50;;;;;;5027228;28;21502;-75
2023/09/19 07:30:36;;;;;;;;;;;17.00;80.50;;;;;;5027460;28;19917;-75
2023/09/19 07:33:02;;;;;;;;;;;17.10;80.50;;;;;;5028013;28;19913;-74
2023/09/19 07:35:28;;;;;;;;;;;17.20;80.50;;;;;;5027759;28;19916;-74
2023/09/19 07:37:54;;;;;;;;;;;17.20;80.50;;;;;;5028046;28;19929;-75
2023/09/19 07:40:23;;;;;;;;;;;17.30;80.50;;;;;;5027496;28;19920;-75
2023/09/19 07:42:50;;;;;;;;;;;17.30;80.50;;;;;;5027661;28;19940;-75
2023/09/19 07:45:16;;;;;;;;;;;17.30;80.50;;;;;;5027551;28;19910;-73
2023/09/19 07:47:48;;;;;;;;;;;17.40;80.50;;;;;;5009157;28;19924;-75
2023/09/19 07:50:16;;;;;;;;;;;17.50;80.40;;;;;;5008719;28;19915;-74
2023/09/19 07:52:42;;;;;;;;;;;17.50;80.40;;;;;;5009046;28;19917;-75
2023/09/19 07:55:09;;;;;;;;;;;17.50;80.40;;;;;;5027249;28;20003;-74
2023/09/19 07:57:35;;;;;;;;;;;17.50;80.40;;;;;;5027405;28;19920;-74
2023/09/19 08:00:00;;;;;;;;;;;17.50;80.50;;;;;;5027428;28;19921;-74
2023/09/19 08:02:28;;;;;;;;;;;17.60;80.60;;;;;;4993081;28;20288;-75
2023/09/19 08:04:53;;;;;;;;;;;17.70;80.60;;;;;;5027261;28;20053;-74
2023/09/19 08:07:19;;;;;;;;;;;17.70;80.60;;;;;;5027212;28;20414;-74
2023/09/19 08:09:46;;;;;;;;;;;17.80;80.60;;;;;;5027322;28;19997;-73
2023/09/19 08:12:11;;;;;;;;;;;17.90;80.60;;;;;;5026945;28;19909;-74
2023/09/19 08:14:37;;;;;;;;;;;18.00;80.50;;;;;;5026501;28;19936;-73
2023/09/19 08:17:05;;;;;;;;;;;18.00;80.50;;;;;;5026136;28;19922;-73
2023/09/19 08:19:31;;;;;;;;;;;18.10;80.60;;;;;;5025909;28;19913;-74
2023/09/19 08:21:58;;;;;;;;;;;18.20;80.60;;;;;;5027184;28;19929;-74
2023/09/19 08:24:28;;;;;;;;;;;18.20;80.70;;;;;;5027162;28;19917;-74
2023/09/19 08:26:54;;;;;;;;;;;18.40;80.80;;;;;;5026004;28;19920;-74
2023/09/19 08:29:20;;;;;;;;;;;18.40;80.60;;;;;;5027214;28;20007;-74
2023/09/19 08:31:49;;;;;;;;;;;18.50;80.60;;;;;;5036270;28;20150;-74
2023/09/19 08:34:15;;;;;;;;;;;18.50;80.60;;;;;;5044496;28;19920;-74
2023/09/19 08:36:43;;;;;;;;;;;18.60;80.70;;;;;;5009801;28;19913;-74
2023/09/19 08:39:08;;;;;;;;;;;18.70;80.70;;;;;;4993917;28;19955;-74
2023/09/19 08:41:34;;;;;;;;;;;18.70;80.70;;;;;;5036076;28;19948;-74
2023/09/19 08:44:01;;;;;;;;;;;18.80;80.70;;;;;;5026829;28;19963;-74
2023/09/19 08:46:30;;;;;;;;;;;18.90;80.80;;;;;;5028017;28;19944;-74
2023/09/19 08:49:06;;;;;;;;;;;18.90;80.70;;;;;;5046617;28;20346;-73
2023/09/19 08:51:45;;;;;;;;;;;19.00;80.60;;;;;;5039167;28;19911;-75
2023/09/19 08:54:32;;;;;;;;;;;18.90;80.50;;;;;;5035457;28;20303;-75
2023/09/19 08:57:02;;;;;;;;;;;19.00;80.70;;;;;;5034537;28;19913;-75
2023/09/19 08:59:29;;;;;;;;;;;18.90;80.60;;;;;;5044355;28;20349;-74
2023/09/19 09:01:55;;;;;;;;;;;18.90;80.60;;;;;;5036813;28;19921;-74
2023/09/19 09:04:22;;;;;;;;;;;18.80;80.50;;;;;;5031693;28;19917;-74
2023/09/19 09:06:50;;;;;;;;;;;18.70;80.60;;;;;;5031457;28;20029;-73
2023/09/19 09:09:17;;;;;;;;;;;18.60;80.60;;;;;;5037795;28;20250;-72
2023/09/19 09:11:42;;;;;;;;;;;18.60;80.80;;;;;;5040627;28;20530;-72
2023/09/19 09:14:08;;;;;;;;;;;18.50;80.80;;;;;;5061159;28;20016;-75
2023/09/19 09:16:34;;;;;;;;;;;18.50;80.90;;;;;;5060143;28;19913;-73
2023/09/19 09:19:00;;;;;;;;;;;18.50;80.80;;;;;;5059702;28;19919;-72
2023/09/19 09:21:26;;;;;;;;;;;18.60;80.80;;;;;;5041598;28;19921;-73
2023/09/19 09:23:53;;;;;;;;;;;18.50;80.80;;;;;;5041759;28;19978;-72
2023/09/19 09:26:46;;;;;;;;;;;18.50;80.90;;;;;;5056846;28;19917;-72
2023/09/19 09:29:13;;;;;;;;;;;18.60;81.00;;;;;;5061057;28;19908;-73
2023/09/19 09:31:42;;;;;;;;;;;18.60;80.90;;;;;;5060399;28;19927;-72
2023/09/19 09:34:09;;;;;;;;;;;18.70;80.90;;;;;;5060847;28;19916;-73
2023/09/19 09:36:36;;;;;;;;;;;18.80;80.90;;;;;;5058692;28;19971;-73
2023/09/19 09:39:15;;;;;;;;;;;18.90;80.90;;;;;;5064826;28;20538;-73
2023/09/19 09:41:41;;;;;;;;;;;19.00;80.90;;;;;;5062313;28;19959;-73
2023/09/19 09:44:17;;;;;;;;;;;19.10;80.90;;;;;;5047701;28;19917;-73
2023/09/19 09:49:27;;;;;;;;;;;19.60;80.90;;;;;;5059385;28;19912;-72
2023/09/19 09:51:59;;;;;;;;;;;19.90;80.90;;;;;;5044693;28;19915;-73
2023/09/19 09:54:30;;;;;;;;;;;20.00;80.50;;;;;;5061535;28;20364;-72
2023/09/19 10:00:15;;;;;;;;;;;19.80;80.30;;;;;;4991125;28;19952;-73
2023/09/19 10:02:41;;;;;;;;;;;19.70;80.50;;;;;;5034588;28;19943;-73
2023/09/19 10:05:14;;;;;;;;;;;19.80;80.80;;;;;;5061752;28;19909;-72
2023/09/19 10:07:42;;;;;;;;;;;19.80;80.70;;;;;;5065087;28;20308;-72
2023/09/19 10:10:21;;;;;;;;;;;19.80;80.60;;;;;;5053002;28;20265;-72
2023/09/19 10:12:48;;;;;;;;;;;19.80;80.60;;;;;;5053081;28;20478;-74
2023/09/19 10:15:20;;;;;;;;;;;19.80;80.70;;;;;;5052967;28;19913;-76
2023/09/19 10:17:46;;;;;;;;;;;19.80;80.80;;;;;;5070824;28;19908;-74
2023/09/19 10:22:57;;;;;;;;;;;19.80;80.60;;;;;;5070330;28;19924;-73
2023/09/19 10:25:30;;;;;;;;;;;19.80;80.70;;;;;;5052301;28;20330;-72
2023/09/19 10:28:10;;;;;;;;;;;19.80;80.70;;;;;;5051301;28;19908;-73
2023/09/19 10:30:52;;;;;;;;;;;19.70;80.70;;;;;;5051428;28;20261;-73
2023/09/19 10:33:22;;;;;;;;;;;19.70;81.00;;;;;;5051319;28;19913;-73
2023/09/19 10:35:51;;;;;;;;;;;19.80;81.20;;;;;;5068960;28;20337;-72
2023/09/19 10:38:22;;;;;;;;;;;19.90;81.20;;;;;;5068995;28;19909;-73
2023/09/19 10:40:52;;;;;;;;;;;20.00;81.10;;;;;;5068925;28;19924;-73
2023/09/19 10:43:19;;;;;;;;;;;20.00;80.90;;;;;;5069193;28;19927;-72
2023/09/19 10:45:46;;;;;;;;;;;20.10;80.90;;;;;;5051923;28;20029;-73
2023/09/19 10:48:12;;;;;;;;;;;20.00;80.70;;;;;;5052200;28;19908;-72
2023/09/19 10:51:04;;;;;;;;;;;19.90;80.60;;;;;;5039114;28;19974;-71
2023/09/19 10:53:40;;;;;;;;;;;19.90;80.80;;;;;;5027798;28;19908;-72
2023/09/19 10:56:10;;;;;;;;;;;19.80;80.70;;;;;;5049958;28;19940;-73
2023/09/19 10:58:38;;;;;;;;;;;19.50;80.70;;;;;;5049645;28;19916;-72
2023/09/19 11:01:12;;;;;;;;;;;19.40;80.90;;;;;;5048925;28;20328;-73
2023/09/19 11:03:43;;;;;;;;;;;19.40;81.10;;;;;;5049293;28;19917;-72
2023/09/19 11:06:19;;;;;;;;;;;19.40;81.10;;;;;;5044911;28;20385;-73
2023/09/19 11:11:46;;;;;;;;;;;19.30;81.20;;;;;;5014866;28;20102;-71
2023/09/19 11:14:24;;;;;;;;;;;19.30;81.20;;;;;;5058531;28;19920;-72
2023/09/19 11:17:04;;;;;;;;;;;19.30;81.20;;;;;;5031765;28;19917;-72
2023/09/19 11:19:49;;;;;;;;;;;19.30;81.10;;;;;;5050057;28;20330;-72
2023/09/19 11:22:14;;;;;;;;;;;19.30;81.30;;;;;;5050175;28;19969;-73
2023/09/19 11:24:41;;;;;;;;;;;19.40;81.30;;;;;;4996318;28;19945;-72
2023/09/19 11:27:13;;;;;;;;;;;19.40;81.30;;;;;;5029768;28;19913;-73
2023/09/19 11:29:40;;;;;;;;;;;19.40;81.20;;;;;;5048017;28;20383;-71
2023/09/19 11:32:06;;;;;;;;;;;19.40;81.20;;;;;;5049594;28;19917;-72
2023/09/19 11:34:41;;;;;;;;;;;19.40;81.30;;;;;;5049492;28;19934;-71
2023/09/19 11:37:11;;;;;;;;;;;19.50;81.30;;;;;;5049399;28;19921;-74
2023/09/19 11:39:38;;;;;;;;;;;19.50;81.30;;;;;;5049183;28;19908;-72
2023/09/19 11:42:23;;;;;;;;;;;19.60;81.40;;;;;;5048202;28;19913;-70
2023/09/19 11:44:51;;;;;;;;;;;19.70;81.40;;;;;;5028971;28;19917;-75
2023/09/19 11:47:19;;;;;;;;;;;19.80;81.30;;;;;;5028841;28;20431;-72
2023/09/19 11:49:44;;;;;;;;;;;19.90;81.30;;;;;;5029236;28;19910;-73
2023/09/19 11:52:11;;;;;;;;;;;20.00;81.40;;;;;;5029027;28;19976;-73
2023/09/19 11:54:41;;;;;;;;;;;20.20;81.50;;;;;;5029382;28;19913;-73
2023/09/19 11:57:07;;;;;;;;;;;20.30;81.30;;;;;;5028857;28;19916;-71
2023/09/19 11:59:33;;;;;;;;;;;20.30;81.40;;;;;;5011225;28;19913;-72
2023/09/19 12:02:05;;;;;;;;;;;20.50;81.70;;;;;;5029026;28;20273;-73
2023/09/19 12:04:38;;;;;;;;;;;20.70;81.50;;;;;;5028619;28;20338;-72
2023/09/19 12:07:16;;;;;;;;;;;20.90;81.40;;;;;;5028853;28;19937;-71
2023/09/19 12:09:43;;;;;;;;;;;21.00;81.50;;;;;;5029250;28;20346;-72
2023/09/19 12:12:19;;;;;;;;;;;21.30;81.60;;;;;;5028712;28;19917;-72
2023/09/19 12:14:48;;;;;;;;;;;21.60;82.10;;;;;;5027813;28;19915;-73
2023/09/19 12:17:14;;;;;;;;;;;22.20;81.90;;;;;;5028609;28;20007;-71
2023/09/19 12:19:49;;;;;;;;;;;22.30;81.20;;;;;;5028187;28;20008;-70
2023/09/19 12:22:15;;;;;;;;;;;22.20;80.70;;;;;;5028175;28;19921;-71
2023/09/19 12:24:44;;;;;;;;;;;21.90;80.70;;;;;;5063320;28;19927;-70
2023/09/19 12:27:11;;;;;;;;;;;21.70;80.80;;;;;;5067273;28;19913;-70
2023/09/19 12:29:43;;;;;;;;;;;21.50;81.00;;;;;;5050132;28;19912;-70
2023/09/19 12:32:09;;;;;;;;;;;21.30;81.10;;;;;;5049843;28;20313;-71
2023/09/19 12:34:35;;;;;;;;;;;21.20;81.30;;;;;;5068420;28;19908;-69
2023/09/19 12:37:11;;;;;;;;;;;21.10;81.40;;;;;;5068286;28;19909;-72
2023/09/19 12:39:37;;;;;;;;;;;20.90;81.40;;;;;;5068490;28;19916;-73
2023/09/19 12:42:04;;;;;;;;;;;20.90;81.60;;;;;;5050150;28;19913;-72
2023/09/19 12:44:30;;;;;;;;;;;20.80;81.60;;;;;;5067828;28;20474;-71
2023/09/19 12:46:59;;;;;;;;;;;20.90;81.70;;;;;;5068005;28;19916;-72
2023/09/19 12:49:24;;;;;;;;;;;20.80;81.60;;;;;;5067975;28;19916;-71
2023/09/19 12:51:54;;;;;;;;;;;20.80;81.50;;;;;;5068148;28;20201;-72
2023/09/19 12:54:22;;;;;;;;;;;20.70;81.40;;;;;;5050467;28;19932;-71
2023/09/19 12:56:50;;;;;;;;;;;20.70;81.50;;;;;;5034083;28;19920;-70
2023/09/19 12:59:16;;;;;;;;;;;20.60;81.40;;;;;;5050884;28;19948;-70
2023/09/19 13:01:46;;;;;;;;;;;20.50;81.30;;;;;;5068462;28;19986;-71
2023/09/19 13:04:13;;;;;;;;;;;20.40;81.40;;;;;;5050241;28;20023;-71
2023/09/19 13:06:43;;;;;;;;;;;20.30;81.60;;;;;;5050386;28;19915;-69
2023/09/19 13:09:11;;;;;;;;;;;20.30;82.00;;;;;;5068306;28;20039;-72
2023/09/19 13:11:42;;;;;;;;;;;20.50;82.00;;;;;;5050215;28;20283;-72
2023/09/19 13:14:21;;;;;;;;;;;20.50;81.70;;;;;;5050071;28;19912;-68
2023/09/19 13:17:14;;;;;;;;;;;20.60;81.60;;;;;;5068234;28;19920;-71
2023/09/19 13:19:45;;;;;;;;;;;20.50;81.40;;;;;;5035392;28;19920;-72
2023/09/19 13:22:31;;;;;;;;;;;20.40;81.20;;;;;;5068253;28;19966;-71
2023/09/19 13:24:58;;;;;;;;;;;20.30;81.40;;;;;;5050016;28;19913;-72
2023/09/19 13:27:24;;;;;;;;;;;20.30;81.60;;;;;;5049566;28;20415;-72
2023/09/19 13:29:49;;;;;;;;;;;20.30;81.70;;;;;;5032464;28;19923;-71
2023/09/19 13:32:15;;;;;;;;;;;20.40;81.80;;;;;;5063141;28;19912;-72
2023/09/19 13:34:40;;;;;;;;;;;20.50;81.60;;;;;;4994473;28;19920;-72
2023/09/19 13:37:06;;;;;;;;;;;20.50;81.60;;;;;;5028785;28;19912;-72
2023/09/19 13:39:31;;;;;;;;;;;20.40;81.60;;;;;;5033646;28;20035;-75
2023/09/19 13:41:58;;;;;;;;;;;20.40;81.80;;;;;;5034407;28;20383;-72
2023/09/19 13:44:24;;;;;;;;;;;20.50;81.90;;;;;;5051509;28;20387;-72
2023/09/19 13:46:50;;;;;;;;;;;20.70;82.10;;;;;;5050728;28;19956;-73
2023/09/19 13:49:17;;;;;;;;;;;20.90;82.10;;;;;;5034069;28;19975;-74
2023/09/19 13:51:43;;;;;;;;;;;21.10;81.70;;;;;;5034104;28;19913;-73
2023/09/19 13:54:11;;;;;;;;;;;21.10;81.70;;;;;;5043923;28;19939;-73
2023/09/19 13:56:37;;;;;;;;;;;21.10;81.70;;;;;;5039220;28;19928;-74
2023/09/19 13:59:03;;;;;;;;;;;21.10;81.50;;;;;;5035815;28;19920;-73
2023/09/19 14:01:28;;;;;;;;;;;20.90;81.20;;;;;;5059214;28;19989;-73
2023/09/19 14:03:57;;;;;;;;;;;20.80;81.40;;;;;;5032468;28;19921;-72
2023/09/19 14:06:22;;;;;;;;;;;20.70;81.30;;;;;;5068266;28;19912;-72
2023/09/19 14:08:49;;;;;;;;;;;20.70;81.40;;;;;;5052835;28;19978;-74
2023/09/19 14:11:15;;;;;;;;;;;20.60;81.50;;;;;;5038552;28;19915;-70
2023/09/19 14:13:46;;;;;;;;;;;20.60;81.70;;;;;;5044329;28;19916;-72
2023/09/19 14:16:12;;;;;;;;;;;20.60;82.00;;;;;;5030948;28;19963;-72
2023/09/19 14:18:37;;;;;;;;;;;20.70;82.30;;;;;;5029353;28;19944;-73
2023/09/19 14:21:06;;;;;;;;;;;20.90;82.20;;;;;;5033825;28;19947;-73
2023/09/19 14:23:36;;;;;;;;;;;21.00;82.20;;;;;;5030941;28;19916;-72
2023/09/19 14:26:01;;;;;;;;;;;21.20;82.20;;;;;;5032814;28;20083;-74
2023/09/19 14:28:27;;;;;;;;;;;21.30;82.10;;;;;;5050859;28;20046;-74
2023/09/19 14:30:52;;;;;;;;;;;21.30;82.00;;;;;;5016192;28;19967;-72
2023/09/19 14:33:18;;;;;;;;;;;21.40;82.00;;;;;;5050762;28;20038;-73